Time;durP1;ratioP1;P1;durP2;ratioP2;P2;SDS_P1;SDS_P2;PMS_P1;PMS_P2;Temp;Humidity;BMP_temperature;BMP_pressure;BME280_temperature;BME280_humidity;BME280_pressure;Samples;Min_cycle;Max_cycle;Signal;HPM_P1;HPM_P2
2022/07/27 00:01:48;;;;;;;10.30;8.10;;;;;;;15.95;92.57;100173.09;84258;1339;22579;-69
2022/07/27 00:03:57;;;;;;;12.90;8.40;;;;;;;15.97;92.65;100173.53;84285;1338;24371;-70
2022/07/27 00:06:06;;;;;;;10.50;8.10;;;;;;;15.97;92.58;100171.73;84296;1337;22614;-71
2022/07/27 00:08:15;;;;;;;8.80;7.90;;;;;;;15.98;92.69;100169.20;84279;1333;22700;-71
2022/07/27 00:10:24;;;;;;;8.20;7.40;;;;;;;15.99;92.90;100168.96;84278;1337;24179;-70
2022/07/27 00:12:33;;;;;;;10.10;7.50;;;;;;;16.03;93.04;100164.06;84252;1338;22671;-71
2022/07/27 00:14:42;;;;;;;13.10;8.30;;;;;;;16.04;93.30;100165.19;84200;1337;23085;-71
2022/07/27 00:16:51;;;;;;;7.20;6.60;;;;;;;16.05;93.23;100167.95;84289;1337;22627;-71
2022/07/27 00:19:00;;;;;;;8.80;6.50;;;;;;;16.06;93.23;100173.15;84244;1337;22656;-70
2022/07/27 00:21:09;;;;;;;8.60;5.60;;;;;;;16.07;93.20;100176.61;84291;1336;22620;-71
2022/07/27 00:23:18;;;;;;;8.60;6.00;;;;;;;16.07;93.33;100183.80;84280;1337;22605;-71
2022/07/27 00:25:27;;;;;;;9.80;6.60;;;;;;;16.09;93.36;100188.27;84287;1337;22705;-70
2022/07/27 00:27:36;;;;;;;8.20;6.10;;;;;;;16.10;93.31;100190.83;84268;1337;22596;-70
2022/07/27 00:29:45;;;;;;;18.90;6.00;;;;;;;16.10;93.50;100190.27;84282;1337;24049;-71
2022/07/27 00:31:54;;;;;;;7.90;5.30;;;;;;;16.10;93.52;100191.33;84266;1337;24238;-71
2022/07/27 00:34:03;;;;;;;6.70;5.00;;;;;;;16.10;93.49;100194.15;84295;1339;22673;-70
2022/07/27 00:36:13;;;;;;;9.70;5.40;;;;;;;16.10;93.57;100197.13;84283;1336;22615;-71
2022/07/27 00:38:22;;;;;;;7.80;5.00;;;;;;;16.10;93.70;100197.32;84256;1337;22640;-71
2022/07/27 00:40:31;;;;;;;7.60;5.70;;;;;;;16.10;93.50;100195.88;84262;1337;22684;-72
2022/07/27 00:42:40;;;;;;;8.30;5.10;;;;;;;16.11;93.68;100199.19;84265;1333;22595;-71
2022/07/27 00:44:49;;;;;;;6.20;5.60;;;;;;;16.12;93.69;100206.04;84272;1336;22616;-71
2022/07/27 00:46:58;;;;;;;7.20;4.50;;;;;;;16.13;93.77;100205.93;84256;1338;25615;-71
2022/07/27 00:49:09;;;;;;;5.10;4.40;;;;;;;16.16;94.03;100207.88;84272;1337;22640;-71
2022/07/27 00:51:20;;;;;;;8.20;4.90;;;;;;;16.17;93.92;100206.77;84254;1339;22759;-69
2022/07/27 00:53:28;;;;;;;6.60;4.20;;;;;;;16.19;93.89;100213.45;84269;1337;25428;-71
2022/07/27 00:55:38;;;;;;;4.90;4.30;;;;;;;16.23;93.78;100217.47;84284;1339;25033;-71
2022/07/27 00:57:47;;;;;;;7.00;4.20;;;;;;;16.23;93.61;100219.37;84261;1337;22617;-71
2022/07/27 00:59:56;;;;;;;7.10;4.30;;;;;;;16.21;93.51;100228.27;84309;1333;22637;-71
2022/07/27 01:02:06;;;;;;;4.30;3.90;;;;;;;16.20;93.42;100228.54;84258;1337;22617;-71
2022/07/27 01:04:15;;;;;;;5.80;4.00;;;;;;;16.20;93.61;100229.42;84300;1338;24284;-71
2022/07/27 01:06:24;;;;;;;5.20;3.70;;;;;;;16.21;93.50;100231.32;84292;1338;24034;-71
2022/07/27 01:08:33;;;;;;;5.10;3.50;;;;;;;16.21;93.46;100233.95;84281;1337;25487;-70
2022/07/27 01:10:42;;;;;;;6.50;4.10;;;;;;;16.20;93.40;100234.33;84259;1337;23152;-71
2022/07/27 01:12:51;;;;;;;5.20;3.70;;;;;;;16.20;93.40;100236.83;84281;1337;22779;-71
2022/07/27 01:15:00;;;;;;;9.70;3.80;;;;;;;16.18;93.21;100236.03;84261;1338;22637;-71
2022/07/27 01:17:09;;;;;;;4.80;3.50;;;;;;;16.17;93.13;100234.02;84284;1338;25371;-72
2022/07/27 01:19:18;;;;;;;4.20;3.40;;;;;;;16.16;93.12;100234.99;84257;1336;26474;-71
2022/07/27 01:21:27;;;;;;;5.10;3.30;;;;;;;16.15;93.32;100235.72;84260;1329;22839;-71
2022/07/27 01:23:36;;;;;;;5.00;3.80;;;;;;;16.14;93.20;100238.08;84258;1337;25506;-71
2022/07/27 01:25:46;;;;;;;4.90;3.20;;;;;;;16.14;93.26;100235.41;84264;1336;22685;-71
2022/07/27 01:27:55;;;;;;;7.50;3.60;;;;;;;16.13;93.33;100231.63;84274;1337;22619;-71
2022/07/27 01:30:25;;;;;;;6.50;2.90;;;;;;;16.12;93.06;100236.79;84284;1333;22605;-71
2022/07/27 01:32:33;;;;;;;3.30;3.00;;;;;;;16.12;93.03;100234.87;84257;1338;25957;-70
2022/07/27 01:34:41;;;;;;;6.00;3.10;;;;;;;16.11;92.98;100238.83;84277;1338;22599;-70
2022/07/27 01:36:50;;;;;;;3.30;2.30;;;;;;;16.11;92.87;100236.34;84263;1337;22658;-70
2022/07/27 01:39:00;;;;;;;4.40;3.80;;;;;;;16.11;92.98;100237.77;84214;1337;22850;-71
2022/07/27 01:41:08;;;;;;;3.50;3.00;;;;;;;16.12;93.10;100236.98;84209;1337;25289;-71
2022/07/27 01:43:17;;;;;;;3.90;2.80;;;;;;;16.12;92.84;100234.70;84257;1338;24142;-70
2022/07/27 01:45:26;;;;;;;5.70;3.30;;;;;;;16.09;92.57;100230.52;84258;1338;22605;-71
2022/07/27 01:47:35;;;;;;;5.40;2.70;;;;;;;16.06;92.37;100231.72;84250;1339;24680;-71
2022/07/27 01:49:44;;;;;;;5.70;3.20;;;;;;;16.04;92.33;100231.32;84240;1337;22613;-71
2022/07/27 01:51:52;;;;;;;4.90;3.10;;;;;;;16.00;92.12;100231.54;84249;1337;22654;-71
2022/07/27 01:54:01;;;;;;;4.70;2.70;;;;;;;15.96;91.92;100232.35;84245;1338;24264;-71
2022/07/27 01:56:13;;;;;;;3.70;2.60;;;;;;;15.91;91.82;100242.69;84270;1338;22642;-71
2022/07/27 01:58:22;;;;;;;3.50;2.40;;;;;;;15.85;91.76;100245.71;84196;1334;22748;-71
2022/07/27 02:00:30;;;;;;;5.80;3.00;;;;;;;15.80;91.77;100245.32;84246;1333;24414;-71
2022/07/27 02:02:38;;;;;;;3.70;2.30;;;;;;;15.76;91.99;100239.22;84261;1337;24157;-70
2022/07/27 02:04:47;;;;;;;6.10;2.30;;;;;;;15.74;92.00;100244.97;84252;1336;24089;-70
2022/07/27 02:06:56;;;;;;;4.50;2.30;;;;;;;15.71;91.97;100245.52;84270;1337;25529;-70
2022/07/27 02:09:06;;;;;;;3.20;2.60;;;;;;;15.67;91.86;100243.80;84284;1335;25953;-70
2022/07/27 02:13:46;;;;;;;5.10;2.60;;;;;;;15.59;91.95;100247.24;84254;1337;22732;-71
2022/07/27 02:15:55;;;;;;;3.10;2.00;;;;;;;15.54;91.90;100248.08;84303;1336;26677;-71
2022/07/27 02:18:04;;;;;;;5.60;2.50;;;;;;;15.52;92.01;100253.01;84274;1338;22739;-70
2022/07/27 02:20:15;;;;;;;2.40;2.20;;;;;;;15.51;92.06;100252.51;84292;1338;22774;-71
2022/07/27 02:22:24;;;;;;;2.90;2.30;;;;;;;15.49;92.09;100252.41;84273;1330;24272;-71
2022/07/27 02:24:34;;;;;;;5.50;2.40;;;;;;;15.48;92.19;100261.62;84271;1338;22624;-71
2022/07/27 02:26:43;;;;;;;4.90;2.80;;;;;;;15.47;92.22;100259.95;84242;1336;23987;-71
2022/07/27 02:28:51;;;;;;;4.30;2.00;;;;;;;15.47;92.41;100258.71;84267;1337;22606;-71
2022/07/27 02:31:01;;;;;;;4.00;2.80;;;;;;;15.49;92.44;100260.35;84270;1338;25705;-72
2022/07/27 02:33:09;;;;;;;3.10;2.10;;;;;;;15.51;92.51;100264.98;84260;1334;22841;-72
2022/07/27 02:35:18;;;;;;;4.70;2.50;;;;;;;15.53;92.57;100267.70;84261;1339;24391;-72
2022/07/27 02:37:27;;;;;;;4.60;2.40;;;;;;;15.55;92.69;100268.61;84279;1339;24249;-72
2022/07/27 02:39:37;;;;;;;2.70;2.20;;;;;;;15.57;92.76;100268.15;84228;1338;22649;-72
2022/07/27 02:41:47;;;;;;;4.40;2.90;;;;;;;15.59;92.81;100273.69;84262;1337;25556;-70
2022/07/27 02:43:56;;;;;;;3.50;2.20;;;;;;;15.60;92.80;100275.55;84249;1338;22860;-72
2022/07/27 02:46:05;;;;;;;8.20;2.50;;;;;;;15.62;92.81;100275.41;84259;1338;22858;-70
2022/07/27 02:48:14;;;;;;;2.40;2.20;;;;;;;15.62;92.74;100275.21;84257;1338;22647;-71
2022/07/27 02:50:23;;;;;;;3.10;2.50;;;;;;;15.64;92.83;100279.34;84270;1338;22661;-71
2022/07/27 02:52:32;;;;;;;4.90;2.10;;;;;;;15.64;92.78;100283.02;84264;1339;22620;-71
2022/07/27 02:54:40;;;;;;;2.60;2.40;;;;;;;15.63;92.55;100282.05;84281;1339;22630;-71
2022/07/27 02:56:49;;;;;;;6.20;2.20;;;;;;;15.64;92.73;100286.20;84274;1337;22605;-71
2022/07/27 02:58:58;;;;;;;3.70;2.20;;;;;;;15.65;92.60;100287.71;84294;1337;22598;-71
2022/07/27 03:01:07;;;;;;;2.60;1.70;;;;;;;15.66;92.60;100291.00;84293;1337;25485;-71
2022/07/27 03:03:16;;;;;;;3.80;2.20;;;;;;;15.67;92.55;100291.80;84270;1331;22721;-71
2022/07/27 03:05:25;;;;;;;4.90;2.00;;;;;;;15.69;92.55;100291.69;84272;1337;22711;-71
2022/07/27 03:07:34;;;;;;;2.70;2.00;;;;;;;15.72;92.50;100291.20;84267;1338;22625;-71
2022/07/27 03:09:42;;;;;;;5.60;2.50;;;;;;;15.73;92.39;100296.36;84292;1337;22609;-68
2022/07/27 03:11:51;;;;;;;6.70;2.00;;;;;;;15.73;92.18;100294.09;84286;1337;25976;-71
2022/07/27 03:13:59;;;;;;;4.20;2.00;;;;;;;15.72;91.99;100295.36;84192;1337;22978;-71
2022/07/27 03:16:08;;;;;;;3.00;1.90;;;;;;;15.72;92.03;100297.86;84287;1334;22721;-71
2022/07/27 03:18:17;;;;;;;3.80;1.70;;;;;;;15.72;92.04;100296.60;84274;1337;24638;-71
2022/07/27 03:20:26;;;;;;;3.50;1.90;;;;;;;15.73;91.94;100302.55;84299;1336;25589;-71
2022/07/27 03:22:36;;;;;;;4.10;2.30;;;;;;;15.72;91.75;100310.67;84279;1337;21891;-71
2022/07/27 03:24:45;;;;;;;3.50;1.90;;;;;;;15.73;91.76;100319.42;84294;1337;25485;-69
2022/07/27 03:26:54;;;;;;;5.30;1.70;;;;;;;15.75;91.92;100323.86;84280;1337;23984;-70
2022/07/27 03:29:03;;;;;;;5.50;2.40;;;;;;;15.76;91.48;100324.86;84273;1338;25430;-72
2022/07/27 03:31:12;;;;;;;4.00;1.80;;;;;;;15.76;91.46;100329.10;84279;1333;22710;-70
2022/07/27 03:33:21;;;;;;;3.80;1.70;;;;;;;15.75;91.22;100327.56;84269;1339;24083;-71
2022/07/27 03:35:30;;;;;;;2.10;1.90;;;;;;;15.76;91.11;100331.40;84277;1338;22629;-71
2022/07/27 03:37:41;;;;;;;2.00;1.50;;;;;;;15.74;91.03;100333.59;84278;1339;22638;-69
2022/07/27 03:39:50;;;;;;;1.80;1.40;;;;;;;15.76;90.88;100335.45;84275;1338;22597;-71
2022/07/27 03:41:58;;;;;;;4.70;1.50;;;;;;;15.75;90.77;100338.99;84279;1338;25464;-72
2022/07/27 03:44:08;;;;;;;4.70;1.90;;;;;;;15.77;90.90;100339.27;84032;1334;339635;-72
2022/07/27 03:46:17;;;;;;;4.10;1.30;;;;;;;15.78;90.62;100340.61;84271;1338;22817;-71
2022/07/27 03:48:26;;;;;;;3.10;1.40;;;;;;;15.77;90.47;100340.30;84271;1336;25612;-71
2022/07/27 03:50:35;;;;;;;1.70;1.10;;;;;;;15.79;90.28;100343.88;84275;1337;22630;-71
2022/07/27 03:52:44;;;;;;;4.20;1.40;;;;;;;15.77;90.04;100349.09;84262;1336;22776;-69
2022/07/27 03:54:52;;;;;;;3.80;1.30;;;;;;;15.74;89.84;100351.51;84280;1338;23283;-70
2022/07/27 03:57:01;;;;;;;2.60;1.70;;;;;;;15.73;89.62;100351.41;84274;1338;22620;-70
2022/07/27 03:59:11;;;;;;;10.30;2.00;;;;;;;15.70;89.27;100344.04;84234;1338;22596;-69
2022/07/27 04:01:20;;;;;;;2.20;1.10;;;;;;;15.66;89.07;100348.89;84385;1336;24312;-71
2022/07/27 04:03:29;;;;;;;1.60;1.10;;;;;;;15.62;89.03;100350.14;84254;1337;22630;-69
2022/07/27 04:05:37;;;;;;;2.10;1.40;;;;;;;15.59;88.89;100357.70;84282;1337;23937;-71
2022/07/27 04:07:46;;;;;;;3.10;1.30;;;;;;;15.53;88.75;100353.46;84295;1338;24293;-71
2022/07/27 04:09:55;;;;;;;5.80;1.40;;;;;;;15.51;88.88;100352.73;84190;1338;22601;-71
2022/07/27 04:12:04;;;;;;;3.50;1.30;;;;;;;15.52;89.08;100352.48;84282;1337;22596;-72
2022/07/27 04:14:14;;;;;;;3.90;1.10;;;;;;;15.56;89.35;100353.31;84253;1338;23205;-71
2022/07/27 04:16:23;;;;;;;1.70;1.30;;;;;;;15.64;89.83;100355.48;84259;1338;22720;-72
2022/07/27 04:18:33;;;;;;;2.30;1.40;;;;;;;15.93;91.25;100355.02;84276;1340;26469;-71
2022/07/27 04:20:41;;;;;;;6.90;1.70;;;;;;;16.11;90.43;100355.50;84257;1337;24364;-71
2022/07/27 04:22:50;;;;;;;2.50;1.20;;;;;;;16.15;89.95;100360.30;84256;1338;22624;-71
2022/07/27 04:24:59;;;;;;;1.90;1.60;;;;;;;16.28;89.68;100362.91;84284;1337;25444;-71
2022/07/27 04:27:07;;;;;;;2.00;1.10;;;;;;;16.25;88.63;100368.33;84289;1337;22675;-71
2022/07/27 04:29:15;;;;;;;3.50;1.20;;;;;;;16.22;88.15;100367.66;84298;1337;22730;-72
2022/07/27 04:31:24;;;;;;;1.70;1.00;;;;;;;16.25;88.17;100374.48;84280;1337;22618;-72
2022/07/27 04:33:33;;;;;;;4.20;1.20;;;;;;;16.32;88.23;100377.27;84276;1338;23918;-69
2022/07/27 04:35:42;;;;;;;3.90;1.20;;;;;;;16.36;88.41;100377.84;84291;1337;22593;-70
2022/07/27 04:37:51;;;;;;;2.40;1.30;;;;;;;16.45;88.63;100375.55;84285;1337;24319;-70
2022/07/27 04:40:01;;;;;;;3.60;1.20;;;;;;;16.54;88.38;100377.80;84201;1338;25629;-70
2022/07/27 04:42:09;;;;;;;;;;;;;;;16.61;88.09;100375.98;84298;1334;22577;-71
2022/07/27 04:44:18;;;;;;;1.20;0.80;;;;;;;16.66;88.21;100379.15;84257;1339;24264;-71
2022/07/27 04:46:28;;;;;;;1.90;1.10;;;;;;;16.73;87.67;100384.01;84266;1338;22597;-71
2022/07/27 04:48:37;;;;;;;3.00;1.30;;;;;;;16.83;87.85;100387.80;84281;1337;24421;-72
2022/07/27 04:50:46;;;;;;;1.60;0.90;;;;;;;16.90;87.18;100386.80;84270;1337;22558;-71
2022/07/27 04:52:55;;;;;;;1.90;1.10;;;;;;;17.06;87.18;100384.73;84175;1338;22739;-71
2022/07/27 04:55:04;;;;;;;4.80;0.90;;;;;;;17.56;87.31;100385.51;84297;1338;22844;-71
2022/07/27 04:57:13;;;;;;;2.80;1.50;;;;;;;18.46;86.92;100382.48;84283;1338;22583;-71
2022/07/27 04:59:22;;;;;;;3.90;1.40;;;;;;;19.52;85.96;100381.70;84183;1338;22644;-71
2022/07/27 05:01:30;;;;;;;3.10;1.00;;;;;;;20.55;83.18;100373.58;84287;1337;25528;-68
2022/07/27 05:03:41;;;;;;;2.70;1.30;;;;;;;21.57;81.25;100373.58;84275;1331;22728;-70
2022/07/27 05:05:50;;;;;;;1.70;1.00;;;;;;;22.66;77.83;100378.66;84284;1338;22636;-71
2022/07/27 05:07:59;;;;;;;1.90;1.10;;;;;;;23.67;73.42;100380.00;84278;1338;22728;-71
2022/07/27 05:10:10;;;;;;;3.20;1.00;;;;;;;24.57;68.74;100373.61;84286;1332;24384;-71
2022/07/27 05:12:19;;;;;;;2.30;0.60;;;;;;;25.32;65.07;100371.27;84267;1337;23954;-71
2022/07/27 05:14:27;;;;;;;3.10;0.80;;;;;;;25.94;60.78;100369.52;84314;1337;22651;-70
2022/07/27 05:16:36;;;;;;;4.50;0.90;;;;;;;26.46;59.61;100366.63;84283;1338;23079;-72
2022/07/27 05:18:45;;;;;;;2.40;0.90;;;;;;;26.98;56.61;100370.02;84281;1338;22598;-72
2022/07/27 05:20:54;;;;;;;3.50;1.00;;;;;;;27.64;55.37;100368.39;84272;1333;22901;-71
2022/07/27 05:23:03;;;;;;;4.00;0.90;;;;;;;28.26;51.38;100368.88;84261;1339;22621;-71
2022/07/27 05:25:12;;;;;;;1.60;0.80;;;;;;;28.69;49.60;100370.99;84273;1334;22585;-72
2022/07/27 05:27:20;;;;;;;;;;;;;;;28.99;47.70;100371.94;84295;1338;25404;-72
2022/07/27 05:29:29;;;;;;;1.70;0.70;;;;;;;29.32;45.53;100374.17;84263;1337;22708;-71
2022/07/27 05:31:37;;;;;;;2.00;0.80;;;;;;;29.58;44.73;100371.29;84250;1339;22595;-71
2022/07/27 05:33:46;;;;;;;2.60;0.80;;;;;;;29.91;43.24;100373.96;84276;1338;25450;-71
2022/07/27 05:35:55;;;;;;;2.70;0.80;;;;;;;29.98;41.57;100368.34;84268;1329;24247;-71
2022/07/27 05:38:03;;;;;;;1.70;0.90;;;;;;;30.10;40.89;100372.39;84290;1337;22631;-71
2022/07/27 05:40:14;;;;;;;7.00;0.90;;;;;;;30.26;41.10;100373.72;84264;1334;22554;-72
2022/07/27 05:42:23;;;;;;;4.20;0.70;;;;;;;30.52;39.96;100376.73;84269;1337;22594;-72
2022/07/27 05:44:32;;;;;;;1.60;0.90;;;;;;;30.79;38.58;100376.14;84275;1339;24084;-70
2022/07/27 05:46:41;;;;;;;1.80;0.80;;;;;;;30.94;37.84;100379.60;84258;1337;22774;-71
2022/07/27 05:48:50;;;;;;;3.40;1.10;;;;;;;31.07;36.80;100376.95;84279;1334;22591;-69
2022/07/27 05:50:59;;;;;;;3.10;1.00;;;;;;;31.05;36.76;100380.55;84303;1338;22609;-72
2022/07/27 05:53:08;;;;;;;2.60;0.90;;;;;;;31.29;36.77;100383.02;84264;1338;22612;-70
2022/07/27 05:55:16;;;;;;;2.30;0.60;;;;;;;31.62;35.59;100384.42;84299;1337;24280;-72
2022/07/27 05:57:25;;;;;;;4.90;1.40;;;;;;;31.81;34.57;100385.66;84275;1337;25435;-72
2022/07/27 05:59:35;;;;;;;2.80;0.80;;;;;;;31.89;33.36;100388.20;84276;1338;22587;-70
2022/07/27 06:01:44;;;;;;;4.30;1.00;;;;;;;31.95;32.49;100384.25;84257;1338;24256;-69
2022/07/27 06:03:53;;;;;;;3.80;0.80;;;;;;;32.01;32.49;100381.97;84142;1338;22630;-69
2022/07/27 06:08:28;;;;;;;2.70;1.10;;;;;;;32.29;32.98;100377.80;84250;1339;22629;-70
2022/07/27 06:10:39;;;;;;;1.60;0.70;;;;;;;32.32;31.32;100381.56;84253;1337;22642;-71
2022/07/27 06:12:48;;;;;;;4.00;1.20;;;;;;;32.69;31.55;100383.58;84236;1337;22601;-70
2022/07/27 06:14:57;;;;;;;6.60;4.50;;;;;;;32.98;31.08;100384.78;84270;1338;22641;-70
2022/07/27 06:17:06;;;;;;;3.30;1.10;;;;;;;33.19;31.30;100389.34;84257;1336;22609;-73
2022/07/27 06:19:13;;;;;;;;;;;;;;;33.33;29.38;100388.53;84300;1338;25347;-72
2022/07/27 06:21:25;;;;;;;7.20;1.10;;;;;;;33.11;29.20;100391.04;84257;1338;22600;-72
2022/07/27 06:23:34;;;;;;;1.90;0.70;;;;;;;33.10;29.72;100390.86;84269;1338;23994;-72
2022/07/27 06:25:42;;;;;;;1.40;0.70;;;;;;;33.10;29.06;100392.50;84257;1337;22711;-71
2022/07/27 06:27:50;;;;;;;;;;;;;;;33.17;30.59;100396.39;84257;1339;22580;-71
2022/07/27 06:29:58;;;;;;;3.70;1.00;;;;;;;33.26;30.39;100394.66;84303;1334;22630;-72
2022/07/27 06:32:08;;;;;;;4.30;1.10;;;;;;;33.58;29.77;100393.54;84250;1337;22711;-72
2022/07/27 06:34:16;;;;;;;1.50;0.50;;;;;;;33.72;28.25;100388.20;84283;1336;22663;-72
2022/07/27 06:36:25;;;;;;;1.70;0.80;;;;;;;33.99;28.75;100390.75;84263;1336;22621;-72
2022/07/27 06:38:32;;;;;;;;;;;;;;;34.52;29.16;100392.77;84270;1337;22855;-71
2022/07/27 06:40:41;;;;;;;3.30;1.00;;;;;;;34.88;27.51;100390.97;84279;1337;22613;-70
2022/07/27 06:42:50;;;;;;;3.80;1.00;;;;;;;34.92;26.89;100387.03;84271;1339;24762;-72
2022/07/27 06:44:59;;;;;;;1.80;0.90;;;;;;;35.07;27.81;100382.75;84250;1338;23897;-70
2022/07/27 06:47:08;;;;;;;5.50;0.70;;;;;;;35.18;26.92;100389.91;84260;1337;24374;-72
2022/07/27 06:49:17;;;;;;;2.70;0.90;;;;;;;35.02;26.16;100386.45;84245;1338;25533;-71
2022/07/27 06:51:24;;;;;;;;;;;;;;;34.93;25.45;100382.55;84269;1338;24103;-70
2022/07/27 06:53:33;;;;;;;2.50;0.90;;;;;;;34.79;24.57;100380.94;84277;1336;22621;-72
2022/07/27 06:55:40;;;;;;;;;;;;;;;34.90;25.20;100382.94;84283;1337;25476;-71
2022/07/27 06:57:49;;;;;;;3.60;1.20;;;;;;;34.97;25.03;100384.44;84279;1331;25611;-71
2022/07/27 06:59:58;;;;;;;2.50;0.90;;;;;;;34.90;23.96;100385.44;84285;1338;23981;-71
2022/07/27 07:02:06;;;;;;;3.40;1.50;;;;;;;34.79;24.38;100383.03;84275;1337;22612;-72
2022/07/27 07:04:15;;;;;;;2.00;0.90;;;;;;;34.86;23.76;100384.38;84281;1337;22595;-73
2022/07/27 07:06:25;;;;;;;3.50;1.00;;;;;;;34.99;24.95;100382.13;84281;1335;22635;-73
2022/07/27 07:08:34;;;;;;;3.70;1.30;;;;;;;35.06;24.67;100380.06;84255;1334;22600;-73
2022/07/27 07:10:44;;;;;;;3.60;1.00;;;;;;;35.23;23.72;100383.56;84287;1337;24287;-70
2022/07/27 07:12:54;;;;;;;3.10;1.10;;;;;;;35.24;23.14;100385.56;84258;1337;22600;-72
2022/07/27 07:15:03;;;;;;;5.10;1.90;;;;;;;35.15;23.29;100381.27;84274;1336;25485;-72
2022/07/27 07:17:12;;;;;;;4.70;1.00;;;;;;;34.97;23.07;100378.73;84306;1337;22597;-73
2022/07/27 07:19:21;;;;;;;2.50;1.00;;;;;;;34.74;23.16;100378.83;84297;1338;22768;-70
2022/07/27 07:21:30;;;;;;;2.90;1.10;;;;;;;34.67;23.39;100379.31;84289;1336;22601;-72
2022/07/27 07:23:38;;;;;;;2.50;1.30;;;;;;;34.84;24.84;100376.05;84306;1337;22702;-72
2022/07/27 07:25:46;;;;;;;;;;;;;;;35.14;24.61;100377.75;84296;1337;22588;-73
2022/07/27 07:27:55;;;;;;;4.10;1.20;;;;;;;35.00;23.70;100382.39;84267;1337;22598;-73
2022/07/27 07:30:04;;;;;;;3.60;1.30;;;;;;;34.88;23.53;100377.89;84281;1338;24003;-72
2022/07/27 07:32:16;;;;;;;4.50;1.60;;;;;;;35.16;24.36;100377.83;84311;1338;24238;-70
2022/07/27 07:34:25;;;;;;;5.70;1.70;;;;;;;35.47;23.80;100378.53;84270;1337;23941;-70
2022/07/27 07:36:33;;;;;;;2.80;1.00;;;;;;;35.81;23.42;100382.87;84309;1337;22611;-72
2022/07/27 07:38:42;;;;;;;5.40;1.30;;;;;;;36.07;23.13;100381.25;84283;1337;23928;-70
2022/07/27 07:40:51;;;;;;;2.40;1.20;;;;;;;35.97;21.97;100379.89;84302;1337;22648;-71
2022/07/27 07:43:01;;;;;;;2.90;1.50;;;;;;;35.74;22.21;100380.61;84314;1337;22620;-70
2022/07/27 07:45:11;;;;;;;5.30;1.50;;;;;;;35.94;22.32;100380.06;84312;1339;22637;-71
2022/07/27 07:47:20;;;;;;;6.00;2.20;;;;;;;35.75;22.63;100385.48;84307;1337;22623;-71
2022/07/27 07:49:29;;;;;;;2.90;1.40;;;;;;;35.72;22.77;100387.95;84299;1339;24267;-72
2022/07/27 07:51:38;;;;;;;3.10;1.40;;;;;;;35.80;23.14;100392.48;84280;1337;23957;-73
2022/07/27 07:53:47;;;;;;;2.10;1.00;;;;;;;35.91;22.35;100388.63;84314;1337;25314;-71
2022/07/27 07:55:57;;;;;;;2.70;1.30;;;;;;;35.99;23.10;100387.73;84286;1333;22623;-71
2022/07/27 07:58:06;;;;;;;3.60;1.30;;;;;;;36.13;23.26;100385.32;84298;1338;22703;-72
2022/07/27 08:00:17;;;;;;;5.40;1.60;;;;;;;36.21;23.50;100386.96;84295;1338;22898;-72
2022/07/27 08:02:26;;;;;;;3.30;1.10;;;;;;;36.39;22.99;100385.34;84319;1337;22703;-73
2022/07/27 08:04:34;;;;;;;5.00;1.30;;;;;;;36.65;22.64;100386.77;84306;1337;24397;-71
2022/07/27 08:06:44;;;;;;;2.00;1.40;;;;;;;36.96;22.78;100392.80;84304;1336;22700;-71
2022/07/27 08:08:53;;;;;;;1.70;1.50;;;;;;;37.04;22.60;100395.30;84306;1337;22647;-71
2022/07/27 08:11:02;;;;;;;3.10;1.70;;;;;;;37.26;22.41;100389.60;84302;1338;23813;-73
2022/07/27 08:13:09;;;;;;;;;;;;;;;37.39;21.52;100387.41;84314;1338;25691;-72
2022/07/27 08:15:18;;;;;;;2.50;1.00;;;;;;;37.38;21.93;100386.38;84271;1338;22812;-71
2022/07/27 08:17:27;;;;;;;2.50;1.20;;;;;;;37.65;22.15;100393.12;84171;1338;22711;-72
2022/07/27 08:19:36;;;;;;;3.50;1.40;;;;;;;37.83;20.79;100390.90;84295;1337;23127;-70
2022/07/27 08:21:46;;;;;;;3.20;1.30;;;;;;;37.88;21.40;100388.08;84296;1337;22607;-72
2022/07/27 08:23:55;;;;;;;2.30;1.20;;;;;;;37.88;20.40;100390.20;84195;1336;22603;-70
2022/07/27 08:26:04;;;;;;;3.30;1.50;;;;;;;37.73;20.58;100391.35;84202;1330;22825;-71
2022/07/27 08:28:13;;;;;;;4.60;1.30;;;;;;;37.74;21.35;100392.09;84220;1338;22606;-71
2022/07/27 08:30:22;;;;;;;3.80;1.40;;;;;;;37.86;21.19;100392.01;84196;1337;26554;-73
2022/07/27 08:32:31;;;;;;;2.30;1.30;;;;;;;37.97;21.11;100394.30;84195;1337;24970;-72
2022/07/27 08:34:39;;;;;;;3.30;1.40;;;;;;;38.09;21.58;100401.66;84225;1337;23966;-72
2022/07/27 08:36:48;;;;;;;2.60;1.10;;;;;;;38.45;20.81;100404.52;84153;1338;23998;-73
2022/07/27 08:39:00;;;;;;;1.80;1.30;;;;;;;38.47;20.58;100401.11;84233;1333;22897;-73
2022/07/27 08:41:09;;;;;;;9.10;1.30;;;;;;;38.34;20.73;100400.19;84257;1337;22625;-73
2022/07/27 08:43:19;;;;;;;3.20;1.50;;;;;;;38.34;20.15;100405.75;84216;1337;22598;-73
2022/07/27 08:45:28;;;;;;;5.50;1.40;;;;;;;38.30;20.49;100403.76;84232;1337;22617;-73
2022/07/27 08:47:38;;;;;;;2.30;1.00;;;;;;;38.31;20.09;100409.25;84226;1338;22627;-73
2022/07/27 08:49:47;;;;;;;2.90;1.20;;;;;;;38.32;20.22;100409.75;84231;1338;23003;-73
2022/07/27 08:51:56;;;;;;;4.90;1.20;;;;;;;38.54;20.66;100416.08;84225;1337;22594;-73
2022/07/27 08:54:05;;;;;;;2.70;1.30;;;;;;;38.55;20.69;100419.65;84209;1329;22668;-73
2022/07/27 08:56:15;;;;;;;2.60;1.40;;;;;;;38.80;20.47;100416.20;84135;1338;22594;-73
2022/07/27 08:58:24;;;;;;;2.40;1.30;;;;;;;38.98;20.16;100415.95;84215;1339;24980;-72
2022/07/27 09:00:33;;;;;;;1.80;1.10;;;;;;;39.00;19.94;100418.17;84206;1337;22610;-72
2022/07/27 09:02:42;;;;;;;2.00;1.10;;;;;;;38.99;19.87;100423.20;84199;1338;23935;-72
2022/07/27 09:04:51;;;;;;;2.00;1.40;;;;;;;38.62;19.45;100425.77;84191;1337;22632;-73
2022/07/27 09:06:59;;;;;;;4.00;1.80;;;;;;;38.13;19.76;100425.96;84236;1338;22601;-72
2022/07/27 09:09:09;;;;;;;3.70;1.10;;;;;;;38.23;20.85;100417.41;84192;1333;22744;-70
2022/07/27 09:11:18;;;;;;;2.60;1.20;;;;;;;38.48;20.40;100420.17;84207;1335;22600;-70
2022/07/27 09:13:29;;;;;;;2.00;1.00;;;;;;;38.65;20.51;100419.38;84221;1330;22591;-72
2022/07/27 09:15:39;;;;;;;3.10;1.10;;;;;;;38.91;20.79;100425.08;84253;1337;22597;-72
2022/07/27 09:17:48;;;;;;;1.70;1.10;;;;;;;38.76;20.52;100427.89;84208;1338;22625;-72
2022/07/27 09:20:01;;;;;;;3.50;1.10;;;;;;;38.16;20.23;100425.87;84247;1337;25472;-74
2022/07/27 09:22:10;;;;;;;2.10;1.20;;;;;;;37.14;20.80;100428.30;84209;1336;22628;-70
2022/07/27 09:24:18;;;;;;;;;;;;;;;36.04;21.42;100426.25;84312;1337;22575;-70
2022/07/27 09:26:27;;;;;;;4.50;1.70;;;;;;;34.96;22.62;100430.16;84275;1336;24225;-72
2022/07/27 09:28:36;;;;;;;1.60;1.10;;;;;;;34.17;23.79;100424.64;84297;1337;25543;-71
2022/07/27 09:30:46;;;;;;;2.20;0.80;;;;;;;33.59;24.98;100424.09;84302;1334;22629;-73
2022/07/27 09:33:01;;;;;;;4.70;1.10;;;;;;;33.39;26.21;100423.89;84273;1337;24966;-72
2022/07/27 09:35:23;;;;;;;2.20;0.70;;;;;;;33.15;26.52;100426.83;84275;1337;22610;-72
2022/07/27 09:37:32;;;;;;;7.20;1.20;;;;;;;32.99;26.70;100425.38;84273;1337;22618;-72
2022/07/27 09:39:42;;;;;;;4.40;0.80;;;;;;;32.89;27.24;100422.17;84167;1339;22678;-72
2022/07/27 09:41:52;;;;;;;6.40;1.10;;;;;;;32.82;26.49;100424.48;84285;1337;25325;-73
2022/07/27 09:44:01;;;;;;;6.30;1.40;;;;;;;32.21;26.38;100428.91;84277;1337;24205;-71
2022/07/27 09:46:10;;;;;;;1.90;1.00;;;;;;;31.74;27.82;100425.67;84254;1330;22622;-71
2022/07/27 09:48:20;;;;;;;4.40;1.00;;;;;;;31.92;28.15;100421.88;84274;1337;22676;-71
2022/07/27 09:50:29;;;;;;;2.90;0.80;;;;;;;32.17;28.48;100421.44;84305;1337;22632;-71
2022/07/27 09:52:38;;;;;;;3.00;0.90;;;;;;;32.20;27.76;100419.79;84293;1334;22876;-72
2022/07/27 09:54:47;;;;;;;1.80;1.00;;;;;;;31.72;27.33;100423.27;84298;1338;26538;-71
2022/07/27 09:57:04;;;;;;;2.30;0.90;;;;;;;31.25;28.35;100430.22;84269;1334;22667;-71
2022/07/27 09:59:17;;;;;;;1.90;0.90;;;;;;;30.99;28.77;100431.29;84308;1338;22628;-73
2022/07/27 10:01:28;;;;;;;3.20;1.30;;;;;;;30.82;28.88;100426.01;84286;1336;24384;-73
2022/07/27 10:03:37;;;;;;;1.50;1.00;;;;;;;30.89;29.03;100431.59;84302;1338;22595;-73
2022/07/27 10:05:46;;;;;;;2.60;1.00;;;;;;;30.65;28.34;100429.97;84276;1337;24972;-73
2022/07/27 10:07:55;;;;;;;4.30;0.80;;;;;;;30.25;29.55;100436.45;84280;1338;22592;-73